Time;durP1;ratioP1;P1;durP2;ratioP2;P2;SDS_P1;SDS_P2;PMS_P1;PMS_P2;Temp;Humidity;BMP_temperature;BMP_pressure;BME280_temperature;BME280_humidity;BME280_pressure;Samples;Min_cycle;Max_cycle;Signal;HPM_P1;HPM_P2
2021/06/22 00:00:30;;;;;;;;;5.75;5.75;;;;;23.07;49.09;100398.63;5088628;27;45663;-44
2021/06/22 00:02:56;;;;;;;;;3.75;3.75;;;;;23.06;49.49;100396.91;5097923;27;46121;-43
2021/06/22 00:05:24;;;;;;;;;3.50;2.50;;;;;23.07;49.48;100396.78;5093809;27;46028;-42
2021/06/22 00:07:52;;;;;;;;;2.00;2.00;;;;;23.07;49.02;100387.78;5094036;27;45581;-43
2021/06/22 00:10:21;;;;;;;;;3.00;3.00;;;;;23.05;49.19;100397.88;5090830;27;45723;-46
2021/06/22 00:12:47;;;;;;;;;10.75;9.00;;;;;23.03;49.40;100398.00;5095298;27;45795;-43
2021/06/22 00:15:15;;;;;;;;;3.50;3.50;;;;;23.03;49.65;100405.25;5086889;27;47275;-43
2021/06/22 00:17:42;;;;;;;;;4.75;4.75;;;;;22.99;49.42;100410.03;5091853;27;46562;-43
2021/06/22 00:20:09;;;;;;;;;2.67;2.67;;;;;22.97;49.55;100420.13;5088333;27;45432;-44
2021/06/22 00:22:35;;;;;;;;;9.50;9.50;;;;;22.95;49.70;100416.69;5094689;27;45463;-45
2021/06/22 00:25:00;;;;;;;;;4.75;4.00;;;;;22.97;49.87;100413.84;5096934;27;47260;-44
2021/06/22 00:27:26;;;;;;;;;3.75;3.75;;;;;22.97;50.01;100420.13;5094535;27;45495;-43
2021/06/22 00:29:51;;;;;;;;;1.00;1.00;;;;;22.99;50.00;100426.28;5090938;27;45394;-45
2021/06/22 00:32:20;;;;;;;;;2.00;2.00;;;;;23.00;49.94;100419.03;5089818;27;45573;-45
2021/06/22 00:34:46;;;;;;;;;2.00;2.00;;;;;22.95;49.74;100418.53;5090864;27;48064;-43
2021/06/22 00:37:15;;;;;;;;;1.33;1.33;;;;;22.93;49.83;100417.78;5088509;27;45476;-43
2021/06/22 00:39:41;;;;;;;;;3.67;1.67;;;;;22.92;50.00;100414.22;5091276;27;45436;-44
2021/06/22 00:42:07;;;;;;;;;1.00;1.00;;;;;22.95;50.06;100413.09;5091438;27;45391;-43
2021/06/22 00:44:46;;;;;;;;;4.33;4.33;;;;;22.97;50.29;100411.13;5091784;27;45468;-43
2021/06/22 00:47:11;;;;;;;;;3.67;2.00;;;;;22.96;49.95;100412.13;5086737;27;45502;-43
2021/06/22 00:49:37;;;;;;;;;2.33;2.33;;;;;22.98;50.31;100418.28;5094268;27;45594;-43
2021/06/22 00:52:03;;;;;;;;;2.00;2.00;;;;;22.99;50.29;100423.56;5097847;27;45601;-42
2021/06/22 00:54:28;;;;;;;;;4.00;4.00;;;;;23.00;50.22;100414.50;5093257;27;47126;-43
2021/06/22 00:56:54;;;;;;;;;3.33;1.67;;;;;23.03;50.08;100416.94;5085633;27;45896;-42
2021/06/22 00:59:19;;;;;;;;;4.00;4.00;;;;;23.05;50.48;100416.81;5086966;27;45532;-43
2021/06/22 01:01:44;;;;;;;;;3.67;3.67;;;;;;;;5091857;27;45662;-42
2021/06/22 01:04:10;;;;;;;;;3.00;3.00;;;;;23.07;50.18;100404.88;5091577;27;47907;-42
2021/06/22 01:06:35;;;;;;;;;7.00;4.00;;;;;23.05;50.63;100412.28;5089615;27;45521;-42
2021/06/22 01:09:04;;;;;;;;;4.33;3.67;;;;;23.01;50.45;100415.34;5090928;27;45296;-43
2021/06/22 01:11:30;;;;;;;;;2.00;2.00;;;;;22.98;50.61;100412.88;5091555;27;45425;-44
2021/06/22 01:13:55;;;;;;;;;2.33;2.33;;;;;22.98;50.84;100415.56;5083925;27;47414;-43
2021/06/22 01:16:25;;;;;;;;;1.67;1.67;;;;;22.99;50.54;100409.16;5088939;27;45818;-43
2021/06/22 01:19:01;;;;;;;;;3.00;2.00;;;;;23.00;50.86;100419.91;5086884;27;45559;-45
2021/06/22 01:21:29;;;;;;;;;3.00;2.00;;;;;22.99;50.76;100412.75;5093749;27;45408;-47
2021/06/22 01:23:54;;;;;;;;;3.00;3.00;;;;;22.98;51.03;100404.75;5097151;27;48453;-43
2021/06/22 01:26:20;;;;;;;;;2.00;2.00;;;;;22.98;51.16;100411.00;5096453;27;45450;-44
2021/06/22 01:28:46;;;;;;;;;3.67;3.33;;;;;22.97;51.48;100411.13;5090058;27;45514;-44
2021/06/22 01:31:13;;;;;;;;;3.00;3.00;;;;;22.98;51.53;100408.31;5093242;27;45317;-43
2021/06/22 01:33:44;;;;;;;;;1.00;1.00;;;;;22.98;51.47;100400.19;5093763;27;48646;-43
2021/06/22 01:36:10;;;;;;;;;3.67;3.67;;;;;22.97;51.66;100398.47;5099750;27;45703;-43
2021/06/22 01:38:35;;;;;;;;;4.67;3.67;;;;;22.97;51.54;100403.03;5088281;27;45651;-44
2021/06/22 01:41:00;;;;;;;;;4.00;4.00;;;;;22.95;51.58;100395.03;5090609;27;45492;-44
2021/06/22 01:43:26;;;;;;;;;2.67;2.33;;;;;22.96;51.89;100395.88;5086784;27;48515;-43
2021/06/22 01:45:51;;;;;;;;;3.67;2.00;;;;;22.95;51.62;100399.56;5076092;27;45763;-44
2021/06/22 01:48:17;;;;;;;;;2.67;2.67;;;;;22.93;52.07;100386.16;5087590;27;45560;-44
2021/06/22 01:50:44;;;;;;;;;3.33;3.33;;;;;22.94;52.14;100389.75;5095743;27;45680;-45
2021/06/22 01:53:09;;;;;;;;;5.00;4.00;;;;;22.90;52.69;100375.59;5093385;27;46353;-43
2021/06/22 01:55:39;;;;;;;;;3.33;3.00;;;;;22.90;52.08;100389.13;5086705;27;45636;-47
2021/06/22 01:58:07;;;;;;;;;4.67;3.67;;;;;22.90;52.40;100381.00;5092147;27;45369;-45
2021/06/22 02:00:33;;;;;;;;;6.67;6.67;;;;;22.89;52.11;100385.56;5086065;27;49118;-46
2021/06/22 02:02:59;;;;;;;;;3.00;3.00;;;;;22.90;52.75;100383.72;5095916;27;47336;-43
2021/06/22 02:05:25;;;;;;;;;6.00;6.00;;;;;22.89;53.18;100384.69;5091719;27;46203;-43
2021/06/22 02:07:50;;;;;;;;;5.25;5.00;;;;;22.87;52.97;100376.72;5086750;27;45569;-44
2021/06/22 02:10:16;;;;;;;;;5.00;5.00;;;;;22.87;52.64;100370.44;5090120;27;45527;-43
2021/06/22 02:12:41;;;;;;;;;6.00;6.00;;;;;22.86;52.80;100380.38;5085646;27;46752;-45
2021/06/22 02:15:09;;;;;;;;;5.33;5.33;;;;;22.87;53.04;100382.13;5081079;27;45422;-43
2021/06/22 02:17:35;;;;;;;;;5.67;5.67;;;;;22.89;52.82;100392.81;5089806;27;45673;-43
2021/06/22 02:20:03;;;;;;;;;7.00;7.00;;;;;22.89;53.29;100396.38;5091946;27;45693;-42
2021/06/22 02:22:29;;;;;;;;;7.50;7.50;;;;;22.86;53.38;100399.31;5086643;27;47372;-45
2021/06/22 02:24:54;;;;;;;;;9.00;9.00;;;;;22.84;53.55;100408.53;5089973;27;45434;-46
2021/06/22 02:27:22;;;;;;;;;8.25;7.75;;;;;22.85;53.80;100403.00;5092740;27;45293;-44
2021/06/22 02:29:48;;;;;;;;;6.75;6.75;;;;;22.87;53.56;100405.59;5102335;27;45377;-44
2021/06/22 02:32:13;;;;;;;;;8.50;8.50;;;;;22.90;53.96;100400.81;5100668;27;47214;-44
2021/06/22 02:34:39;;;;;;;;;8.25;8.25;;;;;22.90;53.80;100394.53;5088406;27;45441;-43
2021/06/22 02:37:04;;;;;;;;;10.75;10.00;;;;;22.88;53.92;100391.09;5081956;27;45360;-44
2021/06/22 02:39:30;;;;;;;;;10.00;7.75;;;;;22.87;53.92;100402.91;5086644;27;45494;-44
2021/06/22 02:41:55;;;;;;;;;10.00;8.50;;;;;22.85;54.11;100394.88;5089866;27;47321;-43
2021/06/22 02:44:21;;;;;;;;;12.00;10.25;;;;;22.83;54.19;100399.56;5091586;27;45861;-44
2021/06/22 02:46:46;;;;;;;;;10.75;9.00;;;;;22.83;54.35;100399.56;5094431;27;45432;-43
2021/06/22 02:49:11;;;;;;;;;9.25;9.25;;;;;22.81;54.62;100400.63;5091986;27;45623;-43
2021/06/22 02:51:37;;;;;;;;;8.50;6.75;;;;;22.78;54.08;100409.84;5087824;27;47894;-42
2021/06/22 02:54:03;;;;;;;;;10.00;9.00;;;;;22.78;54.54;100411.69;5094634;27;45400;-43
2021/06/22 02:56:28;;;;;;;;;7.25;7.25;;;;;22.79;54.44;100418.81;5099732;27;45734;-45
2021/06/22 02:58:54;;;;;;;;;7.50;6.75;;;;;22.77;54.68;100420.78;5093318;27;45732;-43
2021/06/22 03:01:19;;;;;;;;;8.00;8.00;;;;;22.75;54.60;100420.06;5094218;27;47341;-44
2021/06/22 03:03:44;;;;;;;;;10.00;8.00;;;;;22.75;54.63;100422.75;5097222;27;45360;-44
2021/06/22 03:06:10;;;;;;;;;8.00;8.00;;;;;22.75;54.71;100411.94;5094655;27;45467;-44
2021/06/22 03:08:35;;;;;;;;;11.33;8.33;;;;;22.75;54.46;100420.91;5089181;27;45823;-43
2021/06/22 03:11:01;;;;;;;;;7.00;6.67;;;;;22.76;54.92;100417.22;5096222;27;48377;-43
2021/06/22 03:13:26;;;;;;;;;9.00;8.00;;;;;22.75;54.65;100411.94;5085032;27;46247;-43
2021/06/22 03:15:52;;;;;;;;;8.00;8.00;;;;;22.75;54.84;100410.09;5097647;27;45585;-42
2021/06/22 03:18:17;;;;;;;;;9.00;9.00;;;;;22.74;54.75;100411.06;5092490;27;45618;-45
2021/06/22 03:20:43;;;;;;;;;8.75;8.75;;;;;22.74;54.72;100413.78;5095980;27;46697;-46
2021/06/22 03:23:08;;;;;;;;;7.67;7.67;;;;;22.74;55.01;100410.19;5090698;27;45368;-45
2021/06/22 03:25:34;;;;;;;;;8.33;8.33;;;;;22.73;54.86;100408.47;5092151;27;45445;-45
2021/06/22 03:28:01;;;;;;;;;8.67;8.33;;;;;22.72;54.71;100404.03;5095440;27;45504;-44
2021/06/22 03:30:26;;;;;;;;;10.00;9.00;;;;;22.68;54.96;100406.13;5084946;27;46907;-43
2021/06/22 03:32:53;;;;;;;;;7.67;7.67;;;;;22.66;55.00;100402.69;5094685;27;45749;-43
2021/06/22 03:35:26;;;;;;;;;8.00;8.00;;;;;22.64;54.88;100406.47;5100525;27;45710;-44
2021/06/22 03:37:54;;;;;;;;;9.00;7.33;;;;;22.63;55.59;100415.59;5091324;27;45478;-40
2021/06/22 03:40:22;;;;;;;;;7.00;7.00;;;;;22.61;55.38;100419.28;5090494;27;45570;-43
2021/06/22 03:42:48;;;;;;;;;5.67;5.33;;;;;22.61;55.55;100412.97;5084908;27;46018;-44
2021/06/22 03:45:14;;;;;;;;;7.00;7.00;;;;;22.60;55.45;100416.66;5089782;27;45730;-42
2021/06/22 03:47:41;;;;;;;;;6.00;6.00;;;;;22.59;55.58;100417.63;5090621;27;46448;-43
2021/06/22 03:50:08;;;;;;;;;7.67;7.67;;;;;22.56;55.20;100420.59;5094890;27;47371;-41
2021/06/22 03:52:34;;;;;;;;;7.00;7.00;;;;;22.54;55.06;100419.84;5089544;27;45511;-42
2021/06/22 03:54:59;;;;;;;;;6.00;6.00;;;;;22.51;55.14;100412.84;5086159;27;45528;-42
2021/06/22 03:57:25;;;;;;;;;6.67;6.67;;;;;22.48;55.70;100420.28;5084968;27;45318;-43
2021/06/22 03:59:51;;;;;;;;;8.00;8.00;;;;;22.46;55.95;100425.81;5110441;27;46947;-43
2021/06/22 04:02:18;;;;;;;;;8.00;7.00;;;;;22.49;55.75;100425.63;5091247;27;45645;-43
2021/06/22 04:04:43;;;;;;;;;6.67;6.67;;;;;22.48;55.44;100426.56;5090031;27;45427;-43
2021/06/22 04:07:09;;;;;;;;;6.33;4.67;;;;;22.49;55.61;100431.03;5095449;27;45471;-42
2021/06/22 04:09:35;;;;;;;;;7.33;6.00;;;;;22.48;55.33;100431.09;5109637;27;47964;-44
2021/06/22 04:12:01;;;;;;;;;7.00;7.00;;;;;22.49;55.71;100435.56;5093874;27;45550;-43
2021/06/22 04:14:27;;;;;;;;;5.33;5.33;;;;;22.49;55.58;100441.84;5091433;27;45541;-43
2021/06/22 04:16:53;;;;;;;;;7.00;7.00;;;;;22.48;55.88;100448.19;5086833;27;45458;-43
2021/06/22 04:19:19;;;;;;;;;6.33;5.00;;;;;22.47;55.92;100445.59;5092852;27;47397;-44
2021/06/22 04:21:45;;;;;;;;;9.00;9.00;;;;;22.46;55.88;100450.16;5091649;27;45614;-42
2021/06/22 04:24:10;;;;;;;;;8.00;8.00;;;;;22.44;55.57;100452.13;5084782;27;45428;-44
2021/06/22 04:26:36;;;;;;;;;8.50;8.50;;;;;22.44;55.98;100451.25;5090190;27;45966;-45
2021/06/22 04:29:02;;;;;;;;;11.25;11.25;;;;;22.45;56.40;100458.38;5092220;27;47860;-43
2021/06/22 04:31:28;;;;;;;;;10.25;10.00;;;;;22.45;56.41;100456.53;5096980;27;45432;-43
2021/06/22 04:33:54;;;;;;;;;9.50;9.00;;;;;22.45;56.25;100458.38;5096156;27;45759;-45
2021/06/22 04:36:19;;;;;;;;;7.00;7.00;;;;;22.47;56.28;100453.72;5089485;27;45557;-45
2021/06/22 04:38:45;;;;;;;;;9.50;9.00;;;;;22.48;55.93;100447.34;5092246;27;47613;-43
2021/06/22 04:41:11;;;;;;;;;6.50;6.50;;;;;22.48;56.14;100455.44;5095265;27;46011;-43
2021/06/22 04:43:36;;;;;;;;;8.25;8.25;;;;;22.48;56.49;100456.31;5089350;27;45626;-44
2021/06/22 04:46:02;;;;;;;;;8.25;7.50;;;;;22.49;55.91;100455.34;5095106;27;45496;-47
2021/06/22 04:48:27;;;;;;;;;8.25;8.25;;;;;22.48;56.22;100456.31;5082679;27;48317;-50
2021/06/22 04:50:57;;;;;;;;;9.00;9.00;;;;;22.48;56.59;100456.31;5091038;27;45223;-44
2021/06/22 04:53:23;;;;;;;;;8.00;8.00;;;;;22.47;56.54;100465.41;5083827;27;45369;-42
2021/06/22 04:55:49;;;;;;;;;9.00;9.00;;;;;22.47;56.51;100467.25;5085973;27;45482;-43
2021/06/22 04:58:15;;;;;;;;;9.00;9.00;;;;;22.50;56.26;100467.03;5089015;27;47005;-46
2021/06/22 05:00:42;;;;;;;;;9.25;9.25;;;;;22.51;56.59;100466.06;5095025;27;45846;-42
2021/06/22 05:03:07;;;;;;;;;9.00;8.00;;;;;22.52;57.00;100470.47;5091006;27;46055;-43
2021/06/22 05:05:33;;;;;;;;;11.00;7.75;;;;;22.53;56.82;100475.78;5083238;27;45583;-47
2021/06/22 05:07:58;;;;;;;;;11.25;11.25;;;;;22.56;56.88;100467.41;5091943;27;47157;-43
2021/06/22 05:10:24;;;;;;;;;10.25;10.25;;;;;22.57;56.89;100461.03;5089722;27;46341;-44
2021/06/22 05:12:49;;;;;;;;;10.75;10.75;;;;;22.58;56.16;100460.03;5087856;27;45603;-45
2021/06/22 05:15:15;;;;;;;;;10.00;10.00;;;;;22.60;56.34;100466.19;5091839;27;45519;-44
2021/06/22 05:17:41;;;;;;;;;10.00;9.25;;;;;22.61;56.26;100465.25;5085580;27;47167;-43
2021/06/22 05:20:07;;;;;;;;;11.75;11.25;;;;;22.64;56.71;100466.84;5088326;27;45767;-44
2021/06/22 05:22:33;;;;;;;;;11.75;11.00;;;;;22.65;56.66;100459.59;5084625;27;45541;-44
2021/06/22 05:24:59;;;;;;;;;15.25;12.75;;;;;22.67;56.97;100463.03;5097252;27;45643;-45
2021/06/22 05:27:25;;;;;;;;;12.50;11.25;;;;;22.70;56.90;100463.66;5084927;27;46223;-45
2021/06/22 05:29:50;;;;;;;;;10.00;10.00;;;;;22.74;56.74;100464.28;5090382;27;45308;-44
2021/06/22 05:32:17;;;;;;;;;14.50;11.75;;;;;22.75;56.29;100466.03;5092468;27;45541;-47
2021/06/22 05:34:42;;;;;;;;;12.50;11.25;;;;;22.75;56.21;100471.44;5091881;27;45391;-42
2021/06/22 05:37:08;;;;;;;;;12.25;12.00;;;;;22.76;56.22;100470.47;5093358;27;48062;-41
2021/06/22 05:39:33;;;;;;;;;12.00;12.00;;;;;22.80;56.57;100474.66;5095533;27;45493;-42
2021/06/22 05:41:59;;;;;;;;;13.00;13.00;;;;;22.82;56.74;100478.97;5087239;27;45405;-44
2021/06/22 05:44:24;;;;;;;;;11.25;11.25;;;;;22.86;56.49;100482.31;5094011;27;45375;-42
2021/06/22 05:46:50;;;;;;;;;11.25;10.75;;;;;22.87;56.67;100484.06;5089987;27;46775;-43
2021/06/22 05:49:16;;;;;;;;;13.25;11.75;;;;;22.89;56.45;100484.81;5093949;27;45354;-43
2021/06/22 05:51:42;;;;;;;;;13.00;13.00;;;;;22.91;56.97;100482.84;5099961;27;45738;-43
2021/06/22 05:54:07;;;;;;;;;14.25;14.25;;;;;22.94;56.58;100485.31;5088741;27;45452;-45
2021/06/22 05:56:33;;;;;;;;;16.25;15.00;;;;;22.95;56.64;100492.44;5079451;27;47425;-43
2021/06/22 05:58:58;;;;;;;;;12.75;12.00;;;;;22.99;56.65;100493.94;5079454;27;45856;-43
2021/06/22 06:01:24;;;;;;;;;13.25;13.25;;;;;23.01;56.73;100492.00;5087194;27;45665;-44
2021/06/22 06:03:49;;;;;;;;;15.25;13.25;;;;;23.03;56.39;100489.16;5093415;27;45302;-47
2021/06/22 06:06:15;;;;;;;;;12.00;11.75;;;;;23.04;56.58;100494.47;5085509;27;47234;-45
2021/06/22 06:08:42;;;;;;;;;10.50;10.50;;;;;23.04;56.39;100497.16;5085581;27;45773;-43
2021/06/22 06:11:08;;;;;;;;;14.50;14.50;;;;;23.07;56.03;100509.59;5098589;27;45434;-43
2021/06/22 06:13:35;;;;;;;;;13.25;11.25;;;;;23.06;56.22;100499.75;5090607;27;45435;-44
2021/06/22 06:16:02;;;;;;;;;18.50;14.50;;;;;23.07;56.67;100504.19;5078200;27;47019;-43
2021/06/22 06:18:27;;;;;;;;;14.75;11.50;;;;;23.05;56.17;100512.41;5090907;27;45692;-43
2021/06/22 06:20:55;;;;;;;;;16.50;13.75;;;;;23.07;56.25;100515.00;5084961;27;45361;-44
2021/06/22 06:23:22;;;;;;;;;11.00;10.50;;;;;23.07;56.27;100515.88;5091217;27;45618;-45
2021/06/22 06:25:47;;;;;;;;;11.00;9.25;;;;;23.11;56.32;100516.47;5098412;27;46335;-42
2021/06/22 06:28:18;;;;;;;;;15.25;13.75;;;;;23.11;56.68;100514.63;5096529;27;45409;-43
2021/06/22 06:30:44;;;;;;;;;26.50;23.00;;;;;23.13;56.30;100522.66;5078144;27;45657;-44
2021/06/22 06:33:10;;;;;;;;;17.50;16.00;;;;;23.15;56.30;100518.00;5092437;27;45701;-43
2021/06/22 06:35:35;;;;;;;;;15.00;15.00;;;;;23.17;56.05;100518.72;5085663;27;45643;-42
2021/06/22 06:38:01;;;;;;;;;15.75;14.25;;;;;23.19;56.43;100523.03;5090797;27;45564;-50
2021/06/22 06:40:27;;;;;;;;;16.00;14.50;;;;;23.20;56.11;100516.63;5085479;27;45455;-42
2021/06/22 06:42:52;;;;;;;;;15.00;15.00;;;;;23.23;56.19;100526.38;5083857;27;45223;-43
2021/06/22 06:45:18;;;;;;;;;17.00;16.00;;;;;23.24;56.05;100525.38;5095954;27;48253;-45
2021/06/22 06:47:45;;;;;;;;;17.00;15.75;;;;;23.24;56.05;100529.94;5085786;27;45223;-44
2021/06/22 06:50:12;;;;;;;;;16.75;16.00;;;;;23.21;56.07;100525.63;5095187;27;45294;-46
2021/06/22 06:52:38;;;;;;;;;15.50;15.50;;;;;23.19;55.67;100527.59;5096661;27;45853;-43
2021/06/22 06:55:05;;;;;;;;;17.25;16.00;;;;;23.17;56.02;100526.84;5091336;27;47215;-46
2021/06/22 06:57:30;;;;;;;;;14.75;14.75;;;;;23.16;56.43;100528.69;5084366;27;46408;-44
2021/06/22 06:59:56;;;;;;;;;16.75;16.75;;;;;23.14;56.10;100532.50;5091950;27;45373;-46
2021/06/22 07:02:21;;;;;;;;;13.50;12.25;;;;;23.13;56.37;100539.78;5089857;27;45531;-43
2021/06/22 07:04:47;;;;;;;;;13.25;13.25;;;;;23.12;55.94;100538.06;5085328;27;46032;-45
2021/06/22 07:07:12;;;;;;;;;14.75;13.00;;;;;23.11;56.04;100547.13;5079732;27;45395;-43
2021/06/22 07:09:38;;;;;;;;;16.25;14.50;;;;;23.11;56.19;100539.00;5078240;27;45403;-42
2021/06/22 07:12:04;;;;;;;;;17.50;15.75;;;;;23.10;55.97;100548.09;5085162;27;45428;-44
2021/06/22 07:14:29;;;;;;;;;18.00;16.75;;;;;23.09;55.81;100548.22;5094645;27;47011;-45
2021/06/22 07:16:54;;;;;;;;;19.00;15.00;;;;;23.07;55.81;100550.19;5081728;27;45405;-44
2021/06/22 07:19:20;;;;;;;;;13.75;13.00;;;;;23.05;55.94;100553.03;5082735;27;45480;-43
2021/06/22 07:21:46;;;;;;;;;14.50;14.50;;;;;23.05;56.24;100549.44;5096992;27;45446;-45
2021/06/22 07:24:12;;;;;;;;;19.50;17.00;;;;;23.06;55.72;100552.03;5095389;27;45472;-47
2021/06/22 07:26:38;;;;;;;;;15.50;15.50;;;;;23.07;55.88;100545.63;5093703;27;46002;-44
2021/06/22 07:29:05;;;;;;;;;14.00;14.00;;;;;23.09;56.00;100553.63;5077915;27;45546;-47
2021/06/22 07:31:31;;;;;;;;;13.00;13.00;;;;;23.07;55.96;100555.59;5089069;27;45588;-44
2021/06/22 07:33:57;;;;;;;;;14.50;14.50;;;;;23.07;56.06;100542.94;5095743;27;47942;-47
2021/06/22 07:36:22;;;;;;;;;16.25;14.25;;;;;23.07;55.96;100542.94;5092090;27;45659;-47
2021/06/22 07:38:48;;;;;;;;;15.75;15.75;;;;;23.07;55.88;100539.38;5081679;27;45239;-45
2021/06/22 07:41:16;;;;;;;;;18.00;17.50;;;;;23.06;55.52;100541.22;5087265;27;46691;-47
2021/06/22 07:43:42;;;;;;;;;14.25;13.25;;;;;23.07;55.60;100542.06;5098839;27;48383;-44
2021/06/22 07:46:07;;;;;;;;;18.75;18.75;;;;;23.06;55.76;100541.22;5095578;27;45440;-45
2021/06/22 07:48:33;;;;;;;;;17.75;17.75;;;;;23.09;55.73;100542.81;5102364;27;45561;-45
2021/06/22 07:50:59;;;;;;;;;19.75;18.50;;;;;23.12;55.54;100546.16;5090007;27;45881;-44
2021/06/22 07:53:24;;;;;;;;;18.00;16.00;;;;;23.13;55.80;100541.63;5092211;27;46377;-44
2021/06/22 07:55:49;;;;;;;;;18.25;16.75;;;;;23.13;55.64;100545.19;5094015;27;45616;-45
2021/06/22 07:58:15;;;;;;;;;25.25;20.25;;;;;23.14;55.64;100551.47;5090859;27;45293;-44
2021/06/22 08:00:48;;;;;;;;;17.25;15.75;;;;;23.13;55.55;100555.16;5096147;27;45381;-47
2021/06/22 08:03:19;;;;;;;;;16.25;15.50;;;;;23.13;55.47;100556.00;5094365;27;47294;-46
2021/06/22 08:05:48;;;;;;;;;19.00;17.25;;;;;23.13;55.44;100561.44;5080758;27;45545;-47
2021/06/22 08:08:18;;;;;;;;;17.00;17.00;;;;;23.13;55.51;100558.72;5085387;27;45361;-44
2021/06/22 08:10:46;;;;;;;;;19.25;17.50;;;;;23.17;55.53;100559.34;5095464;27;45298;-43
2021/06/22 08:13:11;;;;;;;;;16.75;16.75;;;;;23.22;55.55;100562.53;5086895;27;47028;-47
2021/06/22 08:15:38;;;;;;;;;17.25;17.00;;;;;23.28;55.24;100567.50;5089570;27;45374;-44
2021/06/22 08:18:05;;;;;;;;;16.00;16.00;;;;;23.36;55.01;100559.63;5099160;27;45394;-46
2021/06/22 08:20:31;;;;;;;;;16.25;15.75;;;;;23.46;55.00;100563.34;5099661;27;45415;-43
2021/06/22 08:22:59;;;;;;;;;17.25;17.25;;;;;23.56;54.71;100571.63;5086974;27;47081;-44
2021/06/22 08:25:26;;;;;;;;;20.75;19.50;;;;;23.62;54.23;100573.03;5100845;27;45531;-45
2021/06/22 08:27:53;;;;;;;;;18.75;17.50;;;;;23.65;54.50;100572.81;5096556;27;45547;-44
2021/06/22 08:30:21;;;;;;;;;16.00;16.00;;;;;23.68;54.41;100575.28;5086263;27;45654;-46
2021/06/22 08:32:47;;;;;;;;;17.50;15.75;;;;;23.70;54.03;100578.72;5089821;27;48249;-45
2021/06/22 08:35:13;;;;;;;;;20.50;18.50;;;;;23.67;54.07;100579.81;5086939;27;45457;-43
2021/06/22 08:37:39;;;;;;;;;19.25;19.25;;;;;23.65;53.96;100587.22;5091586;27;45419;-44
2021/06/22 08:40:06;;;;;;;;;17.75;16.75;;;;;23.61;54.10;100585.72;5093386;27;45473;-47
2021/06/22 08:42:35;;;;;;;;;19.75;18.50;;;;;23.57;53.99;100588.75;5089786;27;47355;-44
2021/06/22 08:45:01;;;;;;;;;20.25;19.50;;;;;23.54;54.31;100589.88;5091073;27;45565;-47
2021/06/22 08:47:27;;;;;;;;;18.75;18.50;;;;;23.51;54.40;100595.53;5082963;27;45363;-43
2021/06/22 08:49:56;;;;;;;;;19.50;17.25;;;;;23.48;54.50;100598.44;5090721;27;45399;-45
2021/06/22 08:52:24;;;;;;;;;24.00;22.25;;;;;23.45;55.02;100595.97;5087010;27;48553;-45
2021/06/22 08:54:50;;;;;;;;;21.25;20.75;;;;;23.42;54.92;100597.09;5085107;27;45846;-46
2021/06/22 08:57:16;;;;;;;;;23.00;19.25;;;;;23.35;54.60;100601.25;5093784;27;45696;-45
2021/06/22 08:59:42;;;;;;;;;18.75;17.50;;;;;23.31;55.01;100610.59;5080429;27;45365;-48
2021/06/22 09:02:07;;;;;;;;;16.50;16.50;;;;;23.28;55.08;100604.56;5092898;27;47391;-44
2021/06/22 09:04:33;;;;;;;;;21.25;21.25;;;;;23.26;55.38;100611.94;5080086;27;45679;-43
2021/06/22 09:06:58;;;;;;;;;23.00;20.75;;;;;23.23;55.58;100604.88;5081080;27;45678;-43
2021/06/22 09:09:34;;;;;;;;;28.00;22.75;;;;;23.19;56.02;100609.69;5094095;27;45435;-45
2021/06/22 09:12:06;;;;;;;;;19.00;18.50;;;;;23.16;55.77;100615.31;5083002;27;47301;-44
2021/06/22 09:14:36;;;;;;;;;23.00;22.50;;;;;23.12;56.22;100615.66;5093484;27;45432;-43
2021/06/22 09:17:03;;;;;;;;;24.50;23.00;;;;;23.09;56.21;100611.34;5089492;27;45553;-43
2021/06/22 09:19:32;;;;;;;;;23.75;23.75;;;;;23.06;56.44;100613.44;5092963;27;45322;-48
2021/06/22 09:22:17;;;;;;;;;24.75;21.50;;;;;23.04;56.35;100618.97;5086205;27;47867;-45
2021/06/22 09:25:10;;;;;;;;;25.00;24.25;;;;;23.01;56.32;100621.03;5094910;27;45392;-44
2021/06/22 09:27:53;;;;;;;;;25.50;21.25;;;;;22.96;55.65;100632.19;5098610;27;45355;-45
2021/06/22 09:30:43;;;;;;;;;24.00;21.00;;;;;22.93;56.12;100626.16;5084987;27;45416;-49
2021/06/22 09:33:16;;;;;;;;;23.25;21.00;;;;;22.93;56.01;100631.56;5081868;27;47543;-47
2021/06/22 09:35:42;;;;;;;;;25.00;24.00;;;;;22.88;55.89;100631.91;5086241;27;45493;-46
2021/06/22 09:38:08;;;;;;;;;21.75;21.75;;;;;22.86;56.39;100625.72;5085178;27;45413;-44
2021/06/22 09:40:33;;;;;;;;;21.25;21.25;;;;;22.88;56.33;100634.63;5089288;27;45389;-44
2021/06/22 09:42:59;;;;;;;;;21.75;21.75;;;;;22.94;56.60;100633.28;5084294;27;45697;-45
2021/06/22 09:45:28;;;;;;;;;21.25;20.50;;;;;22.98;56.20;100621.25;5094677;27;45855;-43
2021/06/22 09:47:55;;;;;;;;;21.75;19.75;;;;;23.01;56.34;100621.91;5086413;27;45947;-46
2021/06/22 09:50:41;;;;;;;;;22.50;22.50;;;;;23.03;55.81;100622.66;5079336;27;45529;-44
2021/06/22 09:53:28;;;;;;;;;20.50;18.75;;;;;23.03;56.01;100622.66;5078485;27;48202;-44
2021/06/22 09:55:54;;;;;;;;;23.00;23.00;;;;;23.06;56.28;100629.66;5081077;27;46019;-49
2021/06/22 09:58:44;;;;;;;;;19.75;19.50;;;;;23.13;55.73;100634.53;5086047;27;45507;-43
2021/06/22 10:01:31;;;;;;;;;18.00;18.00;;;;;23.19;55.91;100638.59;5090760;27;45703;-44
2021/06/22 10:04:13;;;;;;;;;23.25;23.25;;;;;23.22;55.98;100640.19;5082746;27;46263;-44
2021/06/22 10:06:38;;;;;;;;;20.50;19.25;;;;;23.25;55.63;100645.38;5086371;27;45653;-43
2021/06/22 10:09:04;;;;;;;;;24.75;20.50;;;;;23.22;55.66;100649.19;5087159;27;45526;-44
2021/06/22 10:11:31;;;;;;;;;17.00;16.00;;;;;23.22;55.39;100651.88;5093334;27;45641;-45
2021/06/22 10:13:57;;;;;;;;;20.25;19.25;;;;;23.21;55.41;100658.28;5093967;27;45417;-46
2021/06/22 10:16:25;;;;;;;;;17.75;16.75;;;;;23.22;55.34;100657.31;5088118;27;45730;-42
2021/06/22 10:18:52;;;;;;;;;16.75;16.25;;;;;23.26;55.71;100653.41;5086150;27;50181;-46
2021/06/22 10:21:18;;;;;;;;;17.00;17.00;;;;;23.33;55.50;100653.78;5080856;27;45475;-46
2021/06/22 10:23:44;;;;;;;;;18.75;18.25;;;;;23.36;55.32;100653.56;5082325;27;47622;-42
2021/06/22 10:26:10;;;;;;;;;14.50;13.00;;;;;23.37;55.28;100666.09;5085883;27;45783;-42
2021/06/22 10:28:36;;;;;;;;;21.25;18.50;;;;;23.33;55.14;100670.03;5085863;27;45341;-44
2021/06/22 10:31:03;;;;;;;;;16.50;15.00;;;;;23.28;55.28;100669.53;5077963;27;45412;-43
2021/06/22 10:33:30;;;;;;;;;15.75;15.50;;;;;23.25;54.97;100664.31;5090537;27;47229;-43
2021/06/22 10:35:57;;;;;;;;;17.50;15.00;;;;;23.22;55.31;100672.69;5077455;27;45461;-43
2021/06/22 10:38:25;;;;;;;;;12.50;12.25;;;;;23.16;55.34;100679.44;5078540;27;45384;-44
2021/06/22 10:40:56;;;;;;;;;13.00;13.00;;;;;23.09;55.17;100680.88;5080860;27;45890;-42
2021/06/22 10:43:36;;;;;;;;;16.25;15.75;;;;;23.04;55.08;100688.47;5079952;27;47617;-42
2021/06/22 10:46:06;;;;;;;;;12.75;11.25;;;;;23.00;55.30;100690.56;5092166;27;45470;-42
2021/06/22 10:49:15;;;;;;;;;12.50;12.25;;;;;22.95;55.25;100692.72;5086624;27;45376;-42
2021/06/22 10:51:43;;;;;;;;;13.75;13.50;;;;;22.93;55.51;100705.50;5077801;27;45807;-46
2021/06/22 10:54:12;;;;;;;;;12.67;12.00;;;;;22.87;55.86;100706.81;5075588;27;47304;-42
2021/06/22 10:56:42;;;;;;;;;13.50;13.50;;;;;22.81;55.71;100712.63;5084461;27;45507;-41
2021/06/22 10:59:19;;;;;;;;;11.33;11.33;;;;;22.75;55.71;100720.34;5081620;27;45293;-43
2021/06/22 11:01:56;;;;;;;;;9.33;9.33;;;;;22.67;56.10;100728.16;5078543;27;45757;-44
2021/06/22 11:04:23;;;;;;;;;8.67;8.67;;;;;22.57;56.22;100726.09;5078178;27;47292;-44
2021/06/22 11:07:07;;;;;;;;;12.00;11.50;;;;;22.49;56.13;100727.63;5081887;27;45682;-43
2021/06/22 11:09:35;;;;;;;;;8.75;8.00;;;;;22.41;56.36;100732.72;5076922;27;45631;-43
2021/06/22 11:12:18;;;;;;;;;9.67;8.33;;;;;22.36;56.34;100743.84;5078341;27;45821;-45
2021/06/22 11:15:00;;;;;;;;;8.75;8.75;;;;;22.30;56.89;100746.97;5082917;27;47385;-43
2021/06/22 11:17:43;;;;;;;;;9.75;9.75;;;;;22.21;57.11;100756.59;5082345;27;45305;-43